sensor_id;sensor_type;location;lat;lon;timestamp;P1;durP1;ratioP1;P2;durP2;ratioP2
55007;SDS011;40902;45.116;21.296;2023-08-01T00:34:55;5.00;;;2.72;;
55007;SDS011;40902;45.116;21.296;2023-08-01T00:37:21;7.07;;;3.17;;
55007;SDS011;40902;45.116;21.296;2023-08-01T00:39:50;3.97;;;2.45;;
55007;SDS011;40902;45.116;21.296;2023-08-01T00:42:16;5.15;;;2.33;;
55007;SDS011;40902;45.116;21.296;2023-08-01T00:44:44;6.20;;;2.70;;
55007;SDS011;40902;45.116;21.296;2023-08-01T00:47:12;3.67;;;2.35;;
55007;SDS011;40902;45.116;21.296;2023-08-01T00:49:39;5.30;;;2.55;;
55007;SDS011;40902;45.116;21.296;2023-08-01T00:52:05;4.97;;;2.42;;
55007;SDS011;40902;45.116;21.296;2023-08-01T00:54:32;6.05;;;2.63;;
55007;SDS011;40902;45.116;21.296;2023-08-01T00:57:04;6.05;;;2.50;;
55007;SDS011;40902;45.116;21.296;2023-08-01T00:59:30;3.97;;;2.30;;
55007;SDS011;40902;45.116;21.296;2023-08-01T01:01:57;3.97;;;2.38;;
55007;SDS011;40902;45.116;21.296;2023-08-01T01:04:29;4.07;;;2.60;;
55007;SDS011;40902;45.116;21.296;2023-08-01T01:07:02;4.50;;;2.55;;
55007;SDS011;40902;45.116;21.296;2023-08-01T01:09:31;6.57;;;2.75;;
55007;SDS011;40902;45.116;21.296;2023-08-01T01:11:57;4.05;;;2.75;;
55007;SDS011;40902;45.116;21.296;2023-08-01T01:14:24;5.57;;;2.38;;
55007;SDS011;40902;45.116;21.296;2023-08-01T01:16:50;4.80;;;2.40;;
55007;SDS011;40902;45.116;21.296;2023-08-01T01:19:16;4.03;;;2.42;;
55007;SDS011;40902;45.116;21.296;2023-08-01T01:21:42;4.47;;;2.50;;
55007;SDS011;40902;45.116;21.296;2023-08-01T01:24:09;5.88;;;2.40;;
55007;SDS011;40902;45.116;21.296;2023-08-01T01:26:36;4.22;;;2.40;;
55007;SDS011;40902;45.116;21.296;2023-08-01T01:29:07;4.68;;;2.38;;
55007;SDS011;40902;45.116;21.296;2023-08-01T01:31:36;4.47;;;2.80;;
55007;SDS011;40902;45.116;21.296;2023-08-01T01:34:05;5.03;;;2.75;;
55007;SDS011;40902;45.116;21.296;2023-08-01T01:36:31;5.75;;;2.47;;
55007;SDS011;40902;45.116;21.296;2023-08-01T01:38:57;5.22;;;2.60;;
55007;SDS011;40902;45.116;21.296;2023-08-01T01:41:25;3.88;;;2.20;;
55007;SDS011;40902;45.116;21.296;2023-08-01T01:43:52;3.97;;;2.50;;
55007;SDS011;40902;45.116;21.296;2023-08-01T01:46:20;5.68;;;2.50;;
55007;SDS011;40902;45.116;21.296;2023-08-01T01:48:48;7.82;;;2.72;;
55007;SDS011;40902;45.116;21.296;2023-08-01T01:51:14;5.43;;;2.63;;
55007;SDS011;40902;45.116;21.296;2023-08-01T01:53:41;5.45;;;2.53;;
55007;SDS011;40902;45.116;21.296;2023-08-01T01:56:07;3.80;;;2.20;;
55007;SDS011;40902;45.116;21.296;2023-08-01T01:58:33;4.90;;;2.40;;
55007;SDS011;40902;45.116;21.296;2023-08-01T02:00:59;3.75;;;2.20;;
55007;SDS011;40902;45.116;21.296;2023-08-01T02:03:25;3.80;;;2.15;;
55007;SDS011;40902;45.116;21.296;2023-08-01T02:05:51;2.42;;;1.90;;
55007;SDS011;40902;45.116;21.296;2023-08-01T02:08:17;5.32;;;2.35;;
55007;SDS011;40902;45.116;21.296;2023-08-01T02:10:44;3.95;;;2.20;;
55007;SDS011;40902;45.116;21.296;2023-08-01T02:13:14;3.67;;;2.35;;
55007;SDS011;40902;45.116;21.296;2023-08-01T02:15:40;5.45;;;2.50;;
55007;SDS011;40902;45.116;21.296;2023-08-01T02:18:06;4.15;;;2.15;;
55007;SDS011;40902;45.116;21.296;2023-08-01T02:20:34;2.78;;;1.90;;
55007;SDS011;40902;45.116;21.296;2023-08-01T02:23:00;4.82;;;2.40;;
55007;SDS011;40902;45.116;21.296;2023-08-01T02:25:29;4.72;;;2.50;;
55007;SDS011;40902;45.116;21.296;2023-08-01T02:27:55;4.55;;;2.50;;
55007;SDS011;40902;45.116;21.296;2023-08-01T02:30:23;3.22;;;2.10;;
55007;SDS011;40902;45.116;21.296;2023-08-01T02:32:49;3.65;;;2.00;;
55007;SDS011;40902;45.116;21.296;2023-08-01T02:35:15;4.45;;;2.30;;
55007;SDS011;40902;45.116;21.296;2023-08-01T02:37:41;3.47;;;2.00;;
55007;SDS011;40902;45.116;21.296;2023-08-01T02:40:08;4.35;;;2.00;;
55007;SDS011;40902;45.116;21.296;2023-08-01T02:42:34;3.25;;;2.00;;
55007;SDS011;40902;45.116;21.296;2023-08-01T02:45:03;4.75;;;2.25;;
55007;SDS011;40902;45.116;21.296;2023-08-01T02:47:29;4.82;;;2.40;;
55007;SDS011;40902;45.116;21.296;2023-08-01T02:49:55;6.63;;;2.53;;
55007;SDS011;40902;45.116;21.296;2023-08-01T02:52:21;2.90;;;2.13;;
55007;SDS011;40902;45.116;21.296;2023-08-01T02:54:49;4.93;;;2.15;;
55007;SDS011;40902;45.116;21.296;2023-08-01T02:57:15;5.13;;;2.40;;
55007;SDS011;40902;45.116;21.296;2023-08-01T02:59:41;4.47;;;2.17;;
55007;SDS011;40902;45.116;21.296;2023-08-01T03:02:09;5.90;;;2.38;;
55007;SDS011;40902;45.116;21.296;2023-08-01T03:04:36;4.68;;;2.33;;
55007;SDS011;40902;45.116;21.296;2023-08-01T03:07:04;6.38;;;2.50;;
55007;SDS011;40902;45.116;21.296;2023-08-01T03:09:31;3.83;;;2.45;;
55007;SDS011;40902;45.116;21.296;2023-08-01T03:11:57;6.03;;;2.60;;
55007;SDS011;40902;45.116;21.296;2023-08-01T03:14:23;4.28;;;2.60;;
55007;SDS011;40902;45.116;21.296;2023-08-01T03:16:49;4.40;;;2.42;;
55007;SDS011;40902;45.116;21.296;2023-08-01T03:19:18;5.22;;;2.42;;
55007;SDS011;40902;45.116;21.296;2023-08-01T03:21:44;6.05;;;2.75;;
55007;SDS011;40902;45.116;21.296;2023-08-01T03:24:10;6.60;;;2.53;;
55007;SDS011;40902;45.116;21.296;2023-08-01T03:26:36;4.63;;;2.33;;
55007;SDS011;40902;45.116;21.296;2023-08-01T03:29:03;4.85;;;2.30;;
55007;SDS011;40902;45.116;21.296;2023-08-01T03:31:30;5.35;;;2.45;;
55007;SDS011;40902;45.116;21.296;2023-08-01T03:33:56;4.07;;;2.47;;
55007;SDS011;40902;45.116;21.296;2023-08-01T03:36:25;5.88;;;2.65;;
55007;SDS011;40902;45.116;21.296;2023-08-01T03:38:51;5.03;;;2.72;;
55007;SDS011;40902;45.116;21.296;2023-08-01T03:41:17;8.32;;;2.75;;
55007;SDS011;40902;45.116;21.296;2023-08-01T03:43:48;3.80;;;2.30;;
55007;SDS011;40902;45.116;21.296;2023-08-01T03:46:14;5.60;;;2.50;;
55007;SDS011;40902;45.116;21.296;2023-08-01T03:48:41;6.68;;;2.65;;
55007;SDS011;40902;45.116;21.296;2023-08-01T03:51:08;4.45;;;2.70;;
55007;SDS011;40902;45.116;21.296;2023-08-01T03:53:34;5.40;;;2.90;;
55007;SDS011;40902;45.116;21.296;2023-08-01T03:56:01;5.15;;;2.50;;
55007;SDS011;40902;45.116;21.296;2023-08-01T03:58:27;5.85;;;2.83;;
55007;SDS011;40902;45.116;21.296;2023-08-01T04:00:55;4.97;;;2.58;;
55007;SDS011;40902;45.116;21.296;2023-08-01T04:03:21;6.00;;;2.80;;
55007;SDS011;40902;45.116;21.296;2023-08-01T04:05:47;6.13;;;3.22;;
55007;SDS011;40902;45.116;21.296;2023-08-01T04:08:13;6.65;;;3.05;;
55007;SDS011;40902;45.116;21.296;2023-08-01T04:10:40;5.28;;;2.90;;
55007;SDS011;40902;45.116;21.296;2023-08-01T04:13:06;6.25;;;2.85;;
55007;SDS011;40902;45.116;21.296;2023-08-01T04:15:32;5.75;;;2.65;;
55007;SDS011;40902;45.116;21.296;2023-08-01T04:17:58;5.57;;;2.63;;
55007;SDS011;40902;45.116;21.296;2023-08-01T04:20:24;6.43;;;2.90;;
55007;SDS011;40902;45.116;21.296;2023-08-01T04:22:50;6.13;;;3.33;;
55007;SDS011;40902;45.116;21.296;2023-08-01T04:25:16;8.23;;;3.20;;
55007;SDS011;40902;45.116;21.296;2023-08-01T04:27:44;4.13;;;2.70;;
55007;SDS011;40902;45.116;21.296;2023-08-01T04:30:11;11.50;;;3.40;;
55007;SDS011;40902;45.116;21.296;2023-08-01T04:32:39;8.68;;;2.80;;
55007;SDS011;40902;45.116;21.296;2023-08-01T04:35:05;5.03;;;2.85;;
55007;SDS011;40902;45.116;21.296;2023-08-01T04:37:31;5.53;;;2.80;;
55007;SDS011;40902;45.116;21.296;2023-08-01T04:39:58;6.60;;;3.00;;
55007;SDS011;40902;45.116;21.296;2023-08-01T04:42:24;7.47;;;3.15;;
55007;SDS011;40902;45.116;21.296;2023-08-01T04:44:50;9.07;;;3.00;;
55007;SDS011;40902;45.116;21.296;2023-08-01T04:47:17;7.22;;;3.40;;
55007;SDS011;40902;45.116;21.296;2023-08-01T04:49:43;7.05;;;3.38;;
55007;SDS011;40902;45.116;21.296;2023-08-01T04:52:09;5.75;;;3.42;;
55007;SDS011;40902;45.116;21.296;2023-08-01T04:54:35;5.72;;;3.38;;
55007;SDS011;40902;45.116;21.296;2023-08-01T04:57:03;8.27;;;3.53;;
55007;SDS011;40902;45.116;21.296;2023-08-01T04:59:29;6.57;;;3.38;;
55007;SDS011;40902;45.116;21.296;2023-08-01T05:01:55;8.02;;;3.05;;
55007;SDS011;40902;45.116;21.296;2023-08-01T05:04:22;6.80;;;3.17;;
55007;SDS011;40902;45.116;21.296;2023-08-01T05:06:52;4.88;;;3.08;;
55007;SDS011;40902;45.116;21.296;2023-08-01T05:09:18;6.22;;;3.38;;
55007;SDS011;40902;45.116;21.296;2023-08-01T05:11:44;6.95;;;3.15;;
55007;SDS011;40902;45.116;21.296;2023-08-01T05:14:11;5.85;;;2.92;;
55007;SDS011;40902;45.116;21.296;2023-08-01T05:16:39;5.70;;;3.17;;
55007;SDS011;40902;45.116;21.296;2023-08-01T05:19:05;6.35;;;3.15;;
55007;SDS011;40902;45.116;21.296;2023-08-01T05:21:31;5.95;;;3.45;;
55007;SDS011;40902;45.116;21.296;2023-08-01T05:23:57;5.18;;;3.20;;
55007;SDS011;40902;45.116;21.296;2023-08-01T05:26:26;5.25;;;3.10;;
55007;SDS011;40902;45.116;21.296;2023-08-01T05:28:52;5.15;;;3.13;;
55007;SDS011;40902;45.116;21.296;2023-08-01T05:31:18;5.13;;;3.10;;
55007;SDS011;40902;45.116;21.296;2023-08-01T05:33:46;5.55;;;3.15;;
55007;SDS011;40902;45.116;21.296;2023-08-01T05:36:12;6.78;;;3.10;;
55007;SDS011;40902;45.116;21.296;2023-08-01T05:38:38;7.38;;;3.22;;
55007;SDS011;40902;45.116;21.296;2023-08-01T05:41:06;4.90;;;3.08;;
55007;SDS011;40902;45.116;21.296;2023-08-01T05:43:33;5.97;;;3.50;;
55007;SDS011;40902;45.116;21.296;2023-08-01T05:45:59;4.97;;;3.47;;
55007;SDS011;40902;45.116;21.296;2023-08-01T05:48:25;5.45;;;3.13;;
55007;SDS011;40902;45.116;21.296;2023-08-01T05:50:51;5.68;;;2.85;;
55007;SDS011;40902;45.116;21.296;2023-08-01T05:53:20;6.53;;;3.22;;
55007;SDS011;40902;45.116;21.296;2023-08-01T05:55:46;5.85;;;3.08;;
55007;SDS011;40902;45.116;21.296;2023-08-01T05:58:15;6.40;;;3.25;;
55007;SDS011;40902;45.116;21.296;2023-08-01T06:00:41;4.95;;;3.25;;
55007;SDS011;40902;45.116;21.296;2023-08-01T06:03:07;6.28;;;3.17;;
55007;SDS011;40902;45.116;21.296;2023-08-01T06:05:33;7.50;;;3.20;;
55007;SDS011;40902;45.116;21.296;2023-08-01T06:07:59;5.05;;;2.95;;
55007;SDS011;40902;45.116;21.296;2023-08-01T06:10:28;8.77;;;3.00;;
55007;SDS011;40902;45.116;21.296;2023-08-01T06:12:57;6.07;;;3.13;;
55007;SDS011;40902;45.116;21.296;2023-08-01T06:15:23;5.63;;;3.10;;
55007;SDS011;40902;45.116;21.296;2023-08-01T06:17:49;5.57;;;3.10;;
55007;SDS011;40902;45.116;21.296;2023-08-01T06:20:15;4.63;;;2.83;;
55007;SDS011;40902;45.116;21.296;2023-08-01T06:22:41;7.03;;;3.08;;
55007;SDS011;40902;45.116;21.296;2023-08-01T06:25:08;6.40;;;3.10;;
55007;SDS011;40902;45.116;21.296;2023-08-01T06:27:34;6.93;;;3.22;;
55007;SDS011;40902;45.116;21.296;2023-08-01T06:30:03;5.53;;;2.90;;
55007;SDS011;40902;45.116;21.296;2023-08-01T06:32:29;8.85;;;3.28;;
55007;SDS011;40902;45.116;21.296;2023-08-01T06:34:55;5.65;;;2.95;;
55007;SDS011;40902;45.116;21.296;2023-08-01T06:37:21;6.13;;;3.08;;
55007;SDS011;40902;45.116;21.296;2023-08-01T06:39:47;4.32;;;2.80;;
55007;SDS011;40902;45.116;21.296;2023-08-01T06:42:13;5.65;;;3.10;;
55007;SDS011;40902;45.116;21.296;2023-08-01T06:44:41;8.00;;;3.22;;
55007;SDS011;40902;45.116;21.296;2023-08-01T06:47:07;6.05;;;3.13;;
55007;SDS011;40902;45.116;21.296;2023-08-01T06:49:35;5.35;;;3.03;;
55007;SDS011;40902;45.116;21.296;2023-08-01T06:52:01;7.90;;;3.58;;
55007;SDS011;40902;45.116;21.296;2023-08-01T06:54:28;5.07;;;2.72;;
55007;SDS011;40902;45.116;21.296;2023-08-01T06:56:54;8.40;;;3.45;;
55007;SDS011;40902;45.116;21.296;2023-08-01T06:59:20;6.47;;;2.92;;
55007;SDS011;40902;45.116;21.296;2023-08-01T07:01:46;5.30;;;2.85;;
55007;SDS011;40902;45.116;21.296;2023-08-01T07:04:12;6.18;;;2.95;;
55007;SDS011;40902;45.116;21.296;2023-08-01T07:06:39;5.15;;;3.13;;
55007;SDS011;40902;45.116;21.296;2023-08-01T07:09:05;7.13;;;3.03;;
55007;SDS011;40902;45.116;21.296;2023-08-01T07:11:32;5.30;;;3.03;;
55007;SDS011;40902;45.116;21.296;2023-08-01T07:13:58;4.70;;;3.05;;
55007;SDS011;40902;45.116;21.296;2023-08-01T07:16:24;5.85;;;2.90;;
55007;SDS011;40902;45.116;21.296;2023-08-01T07:18:50;6.40;;;3.50;;
55007;SDS011;40902;45.116;21.296;2023-08-01T07:21:17;4.97;;;2.70;;
55007;SDS011;40902;45.116;21.296;2023-08-01T07:23:45;4.90;;;2.80;;
55007;SDS011;40902;45.116;21.296;2023-08-01T07:26:13;3.75;;;2.50;;
55007;SDS011;40902;45.116;21.296;2023-08-01T07:28:39;5.25;;;2.72;;
55007;SDS011;40902;45.116;21.296;2023-08-01T07:31:06;6.32;;;2.45;;
55007;SDS011;40902;45.116;21.296;2023-08-01T07:33:32;4.07;;;2.33;;
55007;SDS011;40902;45.116;21.296;2023-08-01T07:35:58;7.13;;;2.72;;
55007;SDS011;40902;45.116;21.296;2023-08-01T07:38:25;4.72;;;2.70;;
55007;SDS011;40902;45.116;21.296;2023-08-01T07:40:53;5.18;;;2.45;;
55007;SDS011;40902;45.116;21.296;2023-08-01T07:43:20;5.65;;;2.88;;
55007;SDS011;40902;45.116;21.296;2023-08-01T07:45:49;5.55;;;2.95;;
55007;SDS011;40902;45.116;21.296;2023-08-01T07:48:17;3.80;;;2.35;;
55007;SDS011;40902;45.116;21.296;2023-08-01T07:50:43;5.65;;;2.90;;
55007;SDS011;40902;45.116;21.296;2023-08-01T07:53:09;5.40;;;2.40;;
55007;SDS011;40902;45.116;21.296;2023-08-01T07:55:35;4.68;;;2.85;;
55007;SDS011;40902;45.116;21.296;2023-08-01T07:58:01;5.28;;;2.97;;
55007;SDS011;40902;45.116;21.296;2023-08-01T08:00:28;3.63;;;2.30;;
55007;SDS011;40902;45.116;21.296;2023-08-01T08:02:56;5.70;;;2.67;;
55007;SDS011;40902;45.116;21.296;2023-08-01T08:05:25;4.15;;;2.50;;
55007;SDS011;40902;45.116;21.296;2023-08-01T08:07:53;5.82;;;3.00;;
55007;SDS011;40902;45.116;21.296;2023-08-01T08:10:19;4.80;;;2.50;;
55007;SDS011;40902;45.116;21.296;2023-08-01T08:12:45;4.15;;;2.50;;
55007;SDS011;40902;45.116;21.296;2023-08-01T08:15:12;4.30;;;2.30;;
55007;SDS011;40902;45.116;21.296;2023-08-01T08:17:38;3.85;;;2.42;;
55007;SDS011;40902;45.116;21.296;2023-08-01T08:20:05;5.18;;;3.10;;
55007;SDS011;40902;45.116;21.296;2023-08-01T08:22:31;6.05;;;2.67;;
55007;SDS011;40902;45.116;21.296;2023-08-01T08:25:00;6.18;;;2.65;;
55007;SDS011;40902;45.116;21.296;2023-08-01T08:27:26;6.90;;;3.05;;
55007;SDS011;40902;45.116;21.296;2023-08-01T08:29:52;3.88;;;2.92;;
55007;SDS011;40902;45.116;21.296;2023-08-01T08:32:18;5.45;;;2.50;;
55007;SDS011;40902;45.116;21.296;2023-08-01T08:34:44;5.93;;;2.42;;
55007;SDS011;40902;45.116;21.296;2023-08-01T08:37:20;4.97;;;2.60;;
55007;SDS011;40902;45.116;21.296;2023-08-01T08:39:46;3.75;;;2.47;;
55007;SDS011;40902;45.116;21.296;2023-08-01T08:42:17;6.35;;;2.65;;
55007;SDS011;40902;45.116;21.296;2023-08-01T08:44:44;6.85;;;3.00;;
55007;SDS011;40902;45.116;21.296;2023-08-01T08:47:12;6.90;;;2.35;;
55007;SDS011;40902;45.116;21.296;2023-08-01T08:49:40;8.38;;;2.90;;
55007;SDS011;40902;45.116;21.296;2023-08-01T08:52:07;4.18;;;2.55;;
55007;SDS011;40902;45.116;21.296;2023-08-01T08:54:34;4.97;;;2.60;;
55007;SDS011;40902;45.116;21.296;2023-08-01T08:57:05;6.50;;;2.55;;
55007;SDS011;40902;45.116;21.296;2023-08-01T08:59:34;8.43;;;2.70;;
55007;SDS011;40902;45.116;21.296;2023-08-01T09:02:01;5.57;;;2.65;;
55007;SDS011;40902;45.116;21.296;2023-08-01T09:04:29;4.78;;;2.58;;
55007;SDS011;40902;45.116;21.296;2023-08-01T09:06:57;6.28;;;2.55;;
55007;SDS011;40902;45.116;21.296;2023-08-01T09:09:24;3.90;;;2.40;;
55007;SDS011;40902;45.116;21.296;2023-08-01T09:11:52;4.57;;;2.60;;
55007;SDS011;40902;45.116;21.296;2023-08-01T09:14:20;5.47;;;2.83;;
55007;SDS011;40902;45.116;21.296;2023-08-01T09:16:47;5.68;;;2.67;;
55007;SDS011;40902;45.116;21.296;2023-08-01T09:19:19;4.00;;;2.40;;
55007;SDS011;40902;45.116;21.296;2023-08-01T09:21:48;4.85;;;2.50;;
55007;SDS011;40902;45.116;21.296;2023-08-01T09:24:17;4.72;;;2.53;;
55007;SDS011;40902;45.116;21.296;2023-08-01T09:26:44;6.63;;;2.60;;
55007;SDS011;40902;45.116;21.296;2023-08-01T09:29:10;4.90;;;2.50;;
55007;SDS011;40902;45.116;21.296;2023-08-01T09:31:40;4.97;;;2.90;;
55007;SDS011;40902;45.116;21.296;2023-08-01T09:34:20;6.25;;;2.50;;
55007;SDS011;40902;45.116;21.296;2023-08-01T09:36:46;5.25;;;2.58;;
55007;SDS011;40902;45.116;21.296;2023-08-01T09:39:20;5.18;;;2.45;;
55007;SDS011;40902;45.116;21.296;2023-08-01T09:41:46;8.10;;;2.63;;
55007;SDS011;40902;45.116;21.296;2023-08-01T09:44:20;4.28;;;2.35;;
55007;SDS011;40902;45.116;21.296;2023-08-01T09:49:23;4.93;;;2.35;;
55007;SDS011;40902;45.116;21.296;2023-08-01T09:51:50;7.25;;;3.03;;
55007;SDS011;40902;45.116;21.296;2023-08-01T09:54:19;3.72;;;2.38;;
55007;SDS011;40902;45.116;21.296;2023-08-01T09:56:46;3.97;;;2.40;;
55007;SDS011;40902;45.116;21.296;2023-08-01T09:59:14;5.85;;;2.50;;
55007;SDS011;40902;45.116;21.296;2023-08-01T10:01:44;4.43;;;2.67;;
55007;SDS011;40902;45.116;21.296;2023-08-01T10:04:11;5.95;;;3.05;;
55007;SDS011;40902;45.116;21.296;2023-08-01T10:06:37;7.40;;;2.88;;
55007;SDS011;40902;45.116;21.296;2023-08-01T10:09:04;4.93;;;2.80;;
55007;SDS011;40902;45.116;21.296;2023-08-01T10:11:33;3.80;;;2.40;;
55007;SDS011;40902;45.116;21.296;2023-08-01T10:14:02;4.18;;;2.55;;
55007;SDS011;40902;45.116;21.296;2023-08-01T10:16:30;4.20;;;2.40;;
55007;SDS011;40902;45.116;21.296;2023-08-01T10:18:57;4.28;;;2.38;;
55007;SDS011;40902;45.116;21.296;2023-08-01T10:21:24;5.05;;;2.78;;
55007;SDS011;40902;45.116;21.296;2023-08-01T10:23:53;4.93;;;3.00;;
55007;SDS011;40902;45.116;21.296;2023-08-01T10:26:20;4.88;;;2.28;;
55007;SDS011;40902;45.116;21.296;2023-08-01T10:28:50;5.75;;;2.60;;
55007;SDS011;40902;45.116;21.296;2023-08-01T10:31:17;5.65;;;2.42;;
55007;SDS011;40902;45.116;21.296;2023-08-01T10:33:47;4.25;;;2.33;;
55007;SDS011;40902;45.116;21.296;2023-08-01T10:36:20;4.88;;;2.40;;
55007;SDS011;40902;45.116;21.296;2023-08-01T10:38:57;4.20;;;2.47;;
55007;SDS011;40902;45.116;21.296;2023-08-01T10:41:33;4.18;;;2.33;;
55007;SDS011;40902;45.116;21.296;2023-08-01T10:49:17;3.33;;;2.20;;
55007;SDS011;40902;45.116;21.296;2023-08-01T10:51:44;4.60;;;2.22;;
55007;SDS011;40902;45.116;21.296;2023-08-01T10:56:50;4.72;;;2.20;;
55007;SDS011;40902;45.116;21.296;2023-08-01T10:59:16;4.35;;;2.05;;
55007;SDS011;40902;45.116;21.296;2023-08-01T11:01:52;4.50;;;2.50;;
55007;SDS011;40902;45.116;21.296;2023-08-01T11:04:20;3.80;;;2.35;;
55007;SDS011;40902;45.116;21.296;2023-08-01T11:06:46;4.18;;;2.17;;
55007;SDS011;40902;45.116;21.296;2023-08-01T11:09:17;4.35;;;2.15;;
55007;SDS011;40902;45.116;21.296;2023-08-01T11:11:43;5.65;;;2.90;;
55007;SDS011;40902;45.116;21.296;2023-08-01T11:14:12;5.18;;;2.20;;
55007;SDS011;40902;45.116;21.296;2023-08-01T11:16:39;3.10;;;2.05;;
55007;SDS011;40902;45.116;21.296;2023-08-01T11:19:17;3.95;;;2.47;;
55007;SDS011;40902;45.116;21.296;2023-08-01T11:21:43;5.00;;;2.75;;
55007;SDS011;40902;45.116;21.296;2023-08-01T11:24:09;3.50;;;2.60;;
55007;SDS011;40902;45.116;21.296;2023-08-01T11:26:35;4.57;;;2.15;;
55007;SDS011;40902;45.116;21.296;2023-08-01T11:29:02;4.07;;;2.40;;
55007;SDS011;40902;45.116;21.296;2023-08-01T11:31:28;5.55;;;2.33;;
55007;SDS011;40902;45.116;21.296;2023-08-01T11:33:56;5.13;;;2.65;;
55007;SDS011;40902;45.116;21.296;2023-08-01T11:36:24;4.18;;;2.42;;
55007;SDS011;40902;45.116;21.296;2023-08-01T11:39:00;4.15;;;2.47;;
55007;SDS011;40902;45.116;21.296;2023-08-01T11:41:29;4.30;;;2.20;;
55007;SDS011;40902;45.116;21.296;2023-08-01T11:44:00;6.40;;;2.30;;
55007;SDS011;40902;45.116;21.296;2023-08-01T11:46:31;5.15;;;2.30;;
55007;SDS011;40902;45.116;21.296;2023-08-01T11:48:58;5.13;;;2.70;;
55007;SDS011;40902;45.116;21.296;2023-08-01T11:51:26;3.85;;;2.25;;
55007;SDS011;40902;45.116;21.296;2023-08-01T11:53:59;3.67;;;2.10;;
55007;SDS011;40902;45.116;21.296;2023-08-01T11:56:26;3.78;;;2.58;;
55007;SDS011;40902;45.116;21.296;2023-08-01T11:58:52;3.55;;;2.20;;
55007;SDS011;40902;45.116;21.296;2023-08-01T12:01:18;4.90;;;2.50;;
55007;SDS011;40902;45.116;21.296;2023-08-01T12:03:47;6.10;;;2.17;;
55007;SDS011;40902;45.116;21.296;2023-08-01T12:06:14;4.68;;;2.20;;
55007;SDS011;40902;45.116;21.296;2023-08-01T12:08:43;4.32;;;2.40;;
55007;SDS011;40902;45.116;21.296;2023-08-01T12:11:24;4.97;;;2.40;;
55007;SDS011;40902;45.116;21.296;2023-08-01T12:16:35;4.30;;;2.45;;
55007;SDS011;40902;45.116;21.296;2023-08-01T12:19:01;4.93;;;2.30;;
55007;SDS011;40902;45.116;21.296;2023-08-01T12:21:35;4.28;;;2.25;;
55007;SDS011;40902;45.116;21.296;2023-08-01T12:24:03;3.22;;;2.13;;
55007;SDS011;40902;45.116;21.296;2023-08-01T12:26:29;3.70;;;2.20;;
55007;SDS011;40902;45.116;21.296;2023-08-01T12:28:56;4.35;;;2.25;;
55007;SDS011;40902;45.116;21.296;2023-08-01T12:31:24;5.88;;;2.30;;
55007;SDS011;40902;45.116;21.296;2023-08-01T12:33:50;5.47;;;2.42;;
55007;SDS011;40902;45.116;21.296;2023-08-01T12:36:21;4.40;;;2.15;;
55007;SDS011;40902;45.116;21.296;2023-08-01T12:38:47;4.97;;;2.17;;
55007;SDS011;40902;45.116;21.296;2023-08-01T12:41:14;4.28;;;2.35;;
55007;SDS011;40902;45.116;21.296;2023-08-01T12:43:40;3.80;;;1.98;;
55007;SDS011;40902;45.116;21.296;2023-08-01T12:46:08;2.90;;;2.03;;
55007;SDS011;40902;45.116;21.296;2023-08-01T12:48:34;4.72;;;2.45;;
55007;SDS011;40902;45.116;21.296;2023-08-01T12:51:00;3.60;;;2.25;;
55007;SDS011;40902;45.116;21.296;2023-08-01T12:53:28;4.72;;;2.33;;
55007;SDS011;40902;45.116;21.296;2023-08-01T12:55:54;3.83;;;2.03;;
55007;SDS011;40902;45.116;21.296;2023-08-01T12:58:20;3.70;;;2.40;;
55007;SDS011;40902;45.116;21.296;2023-08-01T13:00:46;4.20;;;2.28;;
55007;SDS011;40902;45.116;21.296;2023-08-01T13:03:14;3.60;;;2.08;;
55007;SDS011;40902;45.116;21.296;2023-08-01T13:05:45;3.83;;;2.08;;
55007;SDS011;40902;45.116;21.296;2023-08-01T13:08:13;3.50;;;2.13;;
55007;SDS011;40902;45.116;21.296;2023-08-01T13:10:42;6.13;;;2.25;;
55007;SDS011;40902;45.116;21.296;2023-08-01T13:13:11;3.40;;;1.83;;
55007;SDS011;40902;45.116;21.296;2023-08-01T13:15:37;3.70;;;2.20;;
55007;SDS011;40902;45.116;21.296;2023-08-01T13:18:05;3.35;;;2.10;;
55007;SDS011;40902;45.116;21.296;2023-08-01T13:20:31;3.90;;;2.00;;
55007;SDS011;40902;45.116;21.296;2023-08-01T13:23:00;5.13;;;2.33;;
55007;SDS011;40902;45.116;21.296;2023-08-01T13:25:26;4.13;;;2.00;;
55007;SDS011;40902;45.116;21.296;2023-08-01T13:27:52;2.90;;;2.20;;
55007;SDS011;40902;45.116;21.296;2023-08-01T13:30:20;4.57;;;2.38;;
55007;SDS011;40902;45.116;21.296;2023-08-01T13:32:46;3.47;;;1.98;;
55007;SDS011;40902;45.116;21.296;2023-08-01T13:35:13;3.05;;;1.92;;
55007;SDS011;40902;45.116;21.296;2023-08-01T13:37:44;3.65;;;2.10;;
55007;SDS011;40902;45.116;21.296;2023-08-01T13:40:10;4.88;;;2.22;;
55007;SDS011;40902;45.116;21.296;2023-08-01T13:42:39;5.03;;;2.00;;
55007;SDS011;40902;45.116;21.296;2023-08-01T13:45:05;3.13;;;1.90;;
55007;SDS011;40902;45.116;21.296;2023-08-01T13:47:32;3.08;;;2.10;;
55007;SDS011;40902;45.116;21.296;2023-08-01T13:49:58;3.03;;;1.98;;
55007;SDS011;40902;45.116;21.296;2023-08-01T13:52:24;3.47;;;2.10;;
55007;SDS011;40902;45.116;21.296;2023-08-01T13:54:50;4.25;;;2.10;;
55007;SDS011;40902;45.116;21.296;2023-08-01T13:57:18;3.67;;;2.08;;
55007;SDS011;40902;45.116;21.296;2023-08-01T13:59:44;2.97;;;1.90;;
55007;SDS011;40902;45.116;21.296;2023-08-01T14:02:10;3.95;;;2.22;;
55007;SDS011;40902;45.116;21.296;2023-08-01T14:04:37;8.18;;;1.90;;
55007;SDS011;40902;45.116;21.296;2023-08-01T14:07:03;4.85;;;1.90;;
55007;SDS011;40902;45.116;21.296;2023-08-01T14:09:29;3.58;;;2.00;;
55007;SDS011;40902;45.116;21.296;2023-08-01T14:11:59;2.85;;;1.70;;
55007;SDS011;40902;45.116;21.296;2023-08-01T14:14:25;3.63;;;2.00;;
55007;SDS011;40902;45.116;21.296;2023-08-01T14:16:51;3.50;;;1.90;;
55007;SDS011;40902;45.116;21.296;2023-08-01T14:19:20;4.97;;;2.30;;
55007;SDS011;40902;45.116;21.296;2023-08-01T14:21:46;4.38;;;2.08;;
55007;SDS011;40902;45.116;21.296;2023-08-01T14:24:15;4.22;;;2.30;;
55007;SDS011;40902;45.116;21.296;2023-08-01T14:26:41;4.05;;;2.30;;
55007;SDS011;40902;45.116;21.296;2023-08-01T14:29:07;3.72;;;1.90;;
55007;SDS011;40902;45.116;21.296;2023-08-01T14:31:35;3.33;;;1.80;;
55007;SDS011;40902;45.116;21.296;2023-08-01T14:34:01;3.85;;;2.13;;
55007;SDS011;40902;45.116;21.296;2023-08-01T14:36:30;3.00;;;2.10;;
55007;SDS011;40902;45.116;21.296;2023-08-01T14:38:56;3.53;;;2.08;;
55007;SDS011;40902;45.116;21.296;2023-08-01T14:41:22;3.42;;;2.20;;
55007;SDS011;40902;45.116;21.296;2023-08-01T14:43:53;3.78;;;2.05;;
55007;SDS011;40902;45.116;21.296;2023-08-01T14:46:19;3.22;;;1.85;;
55007;SDS011;40902;45.116;21.296;2023-08-01T14:48:45;3.25;;;1.90;;
55007;SDS011;40902;45.116;21.296;2023-08-01T14:51:11;3.65;;;1.90;;
55007;SDS011;40902;45.116;21.296;2023-08-01T14:53:37;3.15;;;1.85;;
55007;SDS011;40902;45.116;21.296;2023-08-01T14:56:03;2.83;;;1.73;;
55007;SDS011;40902;45.116;21.296;2023-08-01T14:58:32;3.10;;;2.17;;
55007;SDS011;40902;45.116;21.296;2023-08-01T15:00:58;4.93;;;2.17;;
55007;SDS011;40902;45.116;21.296;2023-08-01T15:03:24;2.70;;;1.70;;
55007;SDS011;40902;45.116;21.296;2023-08-01T15:05:50;2.80;;;1.90;;
55007;SDS011;40902;45.116;21.296;2023-08-01T15:08:16;3.17;;;1.90;;
55007;SDS011;40902;45.116;21.296;2023-08-01T15:10:42;3.10;;;1.85;;
55007;SDS011;40902;45.116;21.296;2023-08-01T15:13:08;3.40;;;1.80;;
55007;SDS011;40902;45.116;21.296;2023-08-01T15:15:35;3.05;;;1.95;;
55007;SDS011;40902;45.116;21.296;2023-08-01T15:18:01;3.85;;;2.00;;
55007;SDS011;40902;45.116;21.296;2023-08-01T15:20:27;3.25;;;1.80;;